Daysland, Canada
Current Conditions -  °F | °C
As of 7:34 PM on Sunday 21 Dec 2014 (Local Time) from CYEG Reporting Station
Light Snow Light Snow  
Wind Chill: 27°   Ceiling: 20000
Heat Index: 27°   Visibility: 10mi
Dew Point: 25°   Wind: 2mph
Humidity: 93%   Direction: 280°W
Pressure: 29.54"   Gusts: NA
Location:  52.87°N, 112.25°W
Report Text: CYEG 220234Z 28002KT 10SM -SN SCT009 SCT014 BKN200 M03/M04 A2954 RMK SC3SC1CI3 SLP041
Loading
Personal Weather Stations






























Interactive Weather Map New forecast layout! Learn more

10-Day Weather Forecast

Advertisements
Track Severe Weather on mobile